sensor_id;sensor_type;location;lat;lon;timestamp;temperature;humidity
12708;DHT22;6418;50.824;4.718;2023-04-16T00:01:52;7.60;99.90
12708;DHT22;6418;50.824;4.718;2023-04-16T00:04:21;7.60;99.90
12708;DHT22;6418;50.824;4.718;2023-04-16T00:06:47;7.70;99.90
12708;DHT22;6418;50.824;4.718;2023-04-16T00:09:14;7.60;99.90
12708;DHT22;6418;50.824;4.718;2023-04-16T00:11:41;7.60;99.90
12708;DHT22;6418;50.824;4.718;2023-04-16T00:14:08;7.80;99.90
12708;DHT22;6418;50.824;4.718;2023-04-16T00:16:35;7.70;99.90
12708;DHT22;6418;50.824;4.718;2023-04-16T00:19:03;7.70;99.90
12708;DHT22;6418;50.824;4.718;2023-04-16T00:21:31;7.80;99.90
12708;DHT22;6418;50.824;4.718;2023-04-16T00:23:58;7.80;99.90
12708;DHT22;6418;50.824;4.718;2023-04-16T00:26:25;7.70;99.90
12708;DHT22;6418;50.824;4.718;2023-04-16T00:28:52;7.80;99.90
12708;DHT22;6418;50.824;4.718;2023-04-16T00:31:25;7.80;99.90
12708;DHT22;6418;50.824;4.718;2023-04-16T00:33:52;7.80;99.90
12708;DHT22;6418;50.824;4.718;2023-04-16T00:36:19;7.70;99.90
12708;DHT22;6418;50.824;4.718;2023-04-16T00:38:47;7.80;99.90
12708;DHT22;6418;50.824;4.718;2023-04-16T00:41:14;7.80;99.90
12708;DHT22;6418;50.824;4.718;2023-04-16T00:43:41;7.90;99.90
12708;DHT22;6418;50.824;4.718;2023-04-16T00:46:09;7.80;99.90
12708;DHT22;6418;50.824;4.718;2023-04-16T00:48:37;7.80;99.90
12708;DHT22;6418;50.824;4.718;2023-04-16T00:51:05;7.80;99.90
12708;DHT22;6418;50.824;4.718;2023-04-16T00:53:34;7.70;99.90
12708;DHT22;6418;50.824;4.718;2023-04-16T00:56:04;7.90;99.90
12708;DHT22;6418;50.824;4.718;2023-04-16T00:58:32;7.80;99.90
12708;DHT22;6418;50.824;4.718;2023-04-16T01:01:00;7.80;99.90
12708;DHT22;6418;50.824;4.718;2023-04-16T01:03:33;7.80;99.90
12708;DHT22;6418;50.824;4.718;2023-04-16T01:06:02;7.80;99.90
12708;DHT22;6418;50.824;4.718;2023-04-16T01:08:29;7.80;99.90
12708;DHT22;6418;50.824;4.718;2023-04-16T01:10:56;7.80;99.90
12708;DHT22;6418;50.824;4.718;2023-04-16T01:13:24;7.90;99.90
12708;DHT22;6418;50.824;4.718;2023-04-16T01:15:51;7.80;99.90
12708;DHT22;6418;50.824;4.718;2023-04-16T01:18:19;7.80;99.90
12708;DHT22;6418;50.824;4.718;2023-04-16T01:20:48;7.80;99.90
12708;DHT22;6418;50.824;4.718;2023-04-16T01:23:15;7.80;99.90
12708;DHT22;6418;50.824;4.718;2023-04-16T01:25:43;7.80;99.90
12708;DHT22;6418;50.824;4.718;2023-04-16T01:28:09;7.90;99.90
12708;DHT22;6418;50.824;4.718;2023-04-16T01:30:36;7.90;99.90
12708;DHT22;6418;50.824;4.718;2023-04-16T01:33:03;7.90;99.90
12708;DHT22;6418;50.824;4.718;2023-04-16T01:35:30;7.90;99.90
12708;DHT22;6418;50.824;4.718;2023-04-16T01:37:59;7.90;99.90
12708;DHT22;6418;50.824;4.718;2023-04-16T01:40:26;7.90;99.90
12708;DHT22;6418;50.824;4.718;2023-04-16T01:42:52;7.90;99.90
12708;DHT22;6418;50.824;4.718;2023-04-16T01:45:20;7.90;99.90
12708;DHT22;6418;50.824;4.718;2023-04-16T01:47:48;7.90;99.90
12708;DHT22;6418;50.824;4.718;2023-04-16T01:50:15;7.90;99.90
12708;DHT22;6418;50.824;4.718;2023-04-16T01:52:42;7.90;99.90
12708;DHT22;6418;50.824;4.718;2023-04-16T01:55:10;7.80;99.90
12708;DHT22;6418;50.824;4.718;2023-04-16T01:57:38;7.90;99.90
12708;DHT22;6418;50.824;4.718;2023-04-16T02:00:06;7.90;99.90
12708;DHT22;6418;50.824;4.718;2023-04-16T02:02:34;7.90;99.90
12708;DHT22;6418;50.824;4.718;2023-04-16T02:05:01;7.90;99.90
12708;DHT22;6418;50.824;4.718;2023-04-16T02:07:28;7.90;99.90
12708;DHT22;6418;50.824;4.718;2023-04-16T02:09:56;7.90;99.90
12708;DHT22;6418;50.824;4.718;2023-04-16T02:12:25;7.90;99.90
12708;DHT22;6418;50.824;4.718;2023-04-16T02:14:51;7.90;99.90
12708;DHT22;6418;50.824;4.718;2023-04-16T02:17:18;7.80;99.90
12708;DHT22;6418;50.824;4.718;2023-04-16T02:19:45;7.70;99.90
12708;DHT22;6418;50.824;4.718;2023-04-16T02:22:12;7.70;99.90
12708;DHT22;6418;50.824;4.718;2023-04-16T02:24:39;7.70;99.90
12708;DHT22;6418;50.824;4.718;2023-04-16T02:27:06;7.80;99.90
12708;DHT22;6418;50.824;4.718;2023-04-16T02:29:35;7.70;99.90
12708;DHT22;6418;50.824;4.718;2023-04-16T02:32:01;7.70;99.90
12708;DHT22;6418;50.824;4.718;2023-04-16T02:34:28;7.80;99.90
12708;DHT22;6418;50.824;4.718;2023-04-16T02:36:55;7.70;99.90
12708;DHT22;6418;50.824;4.718;2023-04-16T02:39:23;7.80;99.90
12708;DHT22;6418;50.824;4.718;2023-04-16T02:41:49;7.80;99.90
12708;DHT22;6418;50.824;4.718;2023-04-16T02:44:16;7.80;99.90
12708;DHT22;6418;50.824;4.718;2023-04-16T02:46:45;7.80;99.90
12708;DHT22;6418;50.824;4.718;2023-04-16T02:49:12;7.80;99.90
12708;DHT22;6418;50.824;4.718;2023-04-16T02:51:38;7.80;99.90
12708;DHT22;6418;50.824;4.718;2023-04-16T02:54:05;7.80;99.90
12708;DHT22;6418;50.824;4.718;2023-04-16T02:56:32;7.70;99.90
12708;DHT22;6418;50.824;4.718;2023-04-16T02:58:59;7.70;99.90
12708;DHT22;6418;50.824;4.718;2023-04-16T03:01:26;7.70;99.90
12708;DHT22;6418;50.824;4.718;2023-04-16T03:03:55;7.70;99.90
12708;DHT22;6418;50.824;4.718;2023-04-16T03:06:22;7.70;99.90
12708;DHT22;6418;50.824;4.718;2023-04-16T03:08:48;7.60;99.90
12708;DHT22;6418;50.824;4.718;2023-04-16T03:11:15;7.70;99.90
12708;DHT22;6418;50.824;4.718;2023-04-16T03:13:42;7.60;99.90
12708;DHT22;6418;50.824;4.718;2023-04-16T03:16:09;7.60;99.90
12708;DHT22;6418;50.824;4.718;2023-04-16T03:18:36;7.60;99.90
12708;DHT22;6418;50.824;4.718;2023-04-16T03:21:05;7.60;99.90
12708;DHT22;6418;50.824;4.718;2023-04-16T03:23:32;7.60;99.90
12708;DHT22;6418;50.824;4.718;2023-04-16T03:26:00;7.50;99.90
12708;DHT22;6418;50.824;4.718;2023-04-16T03:28:26;7.50;99.90
12708;DHT22;6418;50.824;4.718;2023-04-16T03:30:53;7.50;99.90
12708;DHT22;6418;50.824;4.718;2023-04-16T03:33:20;7.40;99.90
12708;DHT22;6418;50.824;4.718;2023-04-16T03:35:54;7.50;99.90
12708;DHT22;6418;50.824;4.718;2023-04-16T03:38:23;7.50;99.90
12708;DHT22;6418;50.824;4.718;2023-04-16T03:40:50;7.50;99.90
12708;DHT22;6418;50.824;4.718;2023-04-16T03:43:17;7.40;99.90
12708;DHT22;6418;50.824;4.718;2023-04-16T03:45:44;7.50;99.90
12708;DHT22;6418;50.824;4.718;2023-04-16T03:48:11;7.40;99.90
12708;DHT22;6418;50.824;4.718;2023-04-16T03:50:38;7.40;99.90
12708;DHT22;6418;50.824;4.718;2023-04-16T03:53:05;7.40;99.90
12708;DHT22;6418;50.824;4.718;2023-04-16T03:55:33;7.40;99.90
12708;DHT22;6418;50.824;4.718;2023-04-16T03:58:00;7.30;99.90
12708;DHT22;6418;50.824;4.718;2023-04-16T04:00:29;7.40;99.90
12708;DHT22;6418;50.824;4.718;2023-04-16T04:02:56;7.30;99.90
12708;DHT22;6418;50.824;4.718;2023-04-16T04:05:23;7.40;99.90
12708;DHT22;6418;50.824;4.718;2023-04-16T04:07:50;7.40;99.90
12708;DHT22;6418;50.824;4.718;2023-04-16T04:10:17;7.30;99.90
12708;DHT22;6418;50.824;4.718;2023-04-16T04:12:45;7.30;99.90
12708;DHT22;6418;50.824;4.718;2023-04-16T04:15:12;7.20;99.90
12708;DHT22;6418;50.824;4.718;2023-04-16T04:17:39;7.30;99.90
12708;DHT22;6418;50.824;4.718;2023-04-16T04:20:07;7.30;99.90
12708;DHT22;6418;50.824;4.718;2023-04-16T04:22:33;7.30;99.90
12708;DHT22;6418;50.824;4.718;2023-04-16T04:25:00;7.20;99.90
12708;DHT22;6418;50.824;4.718;2023-04-16T04:27:27;7.30;99.90
12708;DHT22;6418;50.824;4.718;2023-04-16T04:29:56;7.30;99.90
12708;DHT22;6418;50.824;4.718;2023-04-16T04:32:23;7.30;99.90
12708;DHT22;6418;50.824;4.718;2023-04-16T04:34:50;7.20;99.90
12708;DHT22;6418;50.824;4.718;2023-04-16T04:37:16;7.30;99.90
12708;DHT22;6418;50.824;4.718;2023-04-16T04:39:43;7.30;99.90
12708;DHT22;6418;50.824;4.718;2023-04-16T04:42:10;7.40;99.90
12708;DHT22;6418;50.824;4.718;2023-04-16T04:44:37;7.30;99.90
12708;DHT22;6418;50.824;4.718;2023-04-16T04:47:06;7.30;99.90
12708;DHT22;6418;50.824;4.718;2023-04-16T04:49:32;7.40;99.90
12708;DHT22;6418;50.824;4.718;2023-04-16T04:52:00;7.40;99.90
12708;DHT22;6418;50.824;4.718;2023-04-16T04:54:27;7.40;99.90
12708;DHT22;6418;50.824;4.718;2023-04-16T04:56:54;7.40;99.90
12708;DHT22;6418;50.824;4.718;2023-04-16T04:59:22;7.50;99.90
12708;DHT22;6418;50.824;4.718;2023-04-16T05:01:49;7.40;99.90
12708;DHT22;6418;50.824;4.718;2023-04-16T05:04:17;7.40;99.90
12708;DHT22;6418;50.824;4.718;2023-04-16T05:06:44;7.50;99.90
12708;DHT22;6418;50.824;4.718;2023-04-16T05:09:11;7.50;99.90
12708;DHT22;6418;50.824;4.718;2023-04-16T05:11:39;7.40;99.90
12708;DHT22;6418;50.824;4.718;2023-04-16T05:14:06;7.40;99.90
12708;DHT22;6418;50.824;4.718;2023-04-16T05:16:35;7.40;99.90
12708;DHT22;6418;50.824;4.718;2023-04-16T05:19:03;7.40;99.90
12708;DHT22;6418;50.824;4.718;2023-04-16T05:21:31;7.40;99.90
12708;DHT22;6418;50.824;4.718;2023-04-16T05:23:59;7.40;99.90
12708;DHT22;6418;50.824;4.718;2023-04-16T05:26:25;7.50;99.90
12708;DHT22;6418;50.824;4.718;2023-04-16T05:28:52;7.50;99.90
12708;DHT22;6418;50.824;4.718;2023-04-16T05:31:19;7.40;99.90
12708;DHT22;6418;50.824;4.718;2023-04-16T05:33:46;7.40;99.90
12708;DHT22;6418;50.824;4.718;2023-04-16T05:36:13;7.40;99.90
12708;DHT22;6418;50.824;4.718;2023-04-16T05:38:41;7.40;99.90
12708;DHT22;6418;50.824;4.718;2023-04-16T05:41:08;7.40;99.90
12708;DHT22;6418;50.824;4.718;2023-04-16T05:43:35;7.40;99.90
12708;DHT22;6418;50.824;4.718;2023-04-16T05:46:02;7.40;99.90
12708;DHT22;6418;50.824;4.718;2023-04-16T05:48:29;7.40;99.90
12708;DHT22;6418;50.824;4.718;2023-04-16T05:50:56;7.50;99.90
12708;DHT22;6418;50.824;4.718;2023-04-16T05:53:23;7.40;99.90
12708;DHT22;6418;50.824;4.718;2023-04-16T05:55:51;7.40;99.90
12708;DHT22;6418;50.824;4.718;2023-04-16T05:58:18;7.40;99.90
12708;DHT22;6418;50.824;4.718;2023-04-16T06:00:45;7.40;99.90
12708;DHT22;6418;50.824;4.718;2023-04-16T06:03:12;7.50;99.90
12708;DHT22;6418;50.824;4.718;2023-04-16T06:05:39;8.30;99.90
12708;DHT22;6418;50.824;4.718;2023-04-16T06:08:06;7.50;99.90
12708;DHT22;6418;50.824;4.718;2023-04-16T06:10:32;7.50;99.90
12708;DHT22;6418;50.824;4.718;2023-04-16T06:13:01;7.40;99.90
12708;DHT22;6418;50.824;4.718;2023-04-16T06:15:28;7.40;99.90
12708;DHT22;6418;50.824;4.718;2023-04-16T06:17:55;7.40;99.90
12708;DHT22;6418;50.824;4.718;2023-04-16T06:20:22;7.40;99.90
12708;DHT22;6418;50.824;4.718;2023-04-16T06:22:49;7.40;99.90
12708;DHT22;6418;50.824;4.718;2023-04-16T06:25:16;7.50;99.90
12708;DHT22;6418;50.824;4.718;2023-04-16T06:27:43;7.50;99.90
12708;DHT22;6418;50.824;4.718;2023-04-16T06:30:13;7.50;99.90
12708;DHT22;6418;50.824;4.718;2023-04-16T06:32:40;7.50;99.90
12708;DHT22;6418;50.824;4.718;2023-04-16T06:35:08;7.50;99.90
12708;DHT22;6418;50.824;4.718;2023-04-16T06:37:35;7.50;99.90
12708;DHT22;6418;50.824;4.718;2023-04-16T06:40:02;7.50;99.90
12708;DHT22;6418;50.824;4.718;2023-04-16T06:42:29;7.50;99.90
12708;DHT22;6418;50.824;4.718;2023-04-16T06:44:55;7.50;99.90
12708;DHT22;6418;50.824;4.718;2023-04-16T06:47:24;7.50;99.90
12708;DHT22;6418;50.824;4.718;2023-04-16T06:49:51;7.40;99.90
12708;DHT22;6418;50.824;4.718;2023-04-16T06:52:18;7.60;99.90
12708;DHT22;6418;50.824;4.718;2023-04-16T06:54:45;8.00;99.90
12708;DHT22;6418;50.824;4.718;2023-04-16T06:57:12;7.50;99.90
12708;DHT22;6418;50.824;4.718;2023-04-16T06:59:39;7.60;99.90
12708;DHT22;6418;50.824;4.718;2023-04-16T07:02:07;7.60;99.90
12708;DHT22;6418;50.824;4.718;2023-04-16T07:04:35;7.60;99.90
12708;DHT22;6418;50.824;4.718;2023-04-16T07:07:02;7.60;99.90
12708;DHT22;6418;50.824;4.718;2023-04-16T07:09:29;7.60;99.90
12708;DHT22;6418;50.824;4.718;2023-04-16T07:11:56;7.60;99.90
12708;DHT22;6418;50.824;4.718;2023-04-16T07:14:23;7.60;99.90
12708;DHT22;6418;50.824;4.718;2023-04-16T07:16:50;7.50;99.90
12708;DHT22;6418;50.824;4.718;2023-04-16T07:19:17;7.60;99.90
12708;DHT22;6418;50.824;4.718;2023-04-16T07:21:45;7.60;99.90
12708;DHT22;6418;50.824;4.718;2023-04-16T07:24:12;7.60;99.90
12708;DHT22;6418;50.824;4.718;2023-04-16T07:26:39;7.50;99.90
12708;DHT22;6418;50.824;4.718;2023-04-16T07:29:06;7.60;99.90
12708;DHT22;6418;50.824;4.718;2023-04-16T07:31:33;7.60;99.90
12708;DHT22;6418;50.824;4.718;2023-04-16T07:34:00;7.60;99.90
12708;DHT22;6418;50.824;4.718;2023-04-16T07:36:26;7.70;99.90
12708;DHT22;6418;50.824;4.718;2023-04-16T07:38:55;7.70;99.90
12708;DHT22;6418;50.824;4.718;2023-04-16T07:41:22;7.70;99.90
12708;DHT22;6418;50.824;4.718;2023-04-16T07:43:49;7.70;99.90
12708;DHT22;6418;50.824;4.718;2023-04-16T07:46:16;7.70;99.90
12708;DHT22;6418;50.824;4.718;2023-04-16T07:48:43;7.80;99.90
12708;DHT22;6418;50.824;4.718;2023-04-16T07:51:09;7.60;99.90
12708;DHT22;6418;50.824;4.718;2023-04-16T07:53:36;7.70;99.90
12708;DHT22;6418;50.824;4.718;2023-04-16T07:56:06;7.70;99.90
12708;DHT22;6418;50.824;4.718;2023-04-16T07:58:33;7.70;99.90
12708;DHT22;6418;50.824;4.718;2023-04-16T08:01:00;7.80;99.90
12708;DHT22;6418;50.824;4.718;2023-04-16T08:03:27;7.80;99.90
12708;DHT22;6418;50.824;4.718;2023-04-16T08:05:54;7.80;99.90
12708;DHT22;6418;50.824;4.718;2023-04-16T08:08:21;7.80;99.90
12708;DHT22;6418;50.824;4.718;2023-04-16T08:10:48;7.90;99.90
12708;DHT22;6418;50.824;4.718;2023-04-16T08:13:21;7.90;99.90
12708;DHT22;6418;50.824;4.718;2023-04-16T08:15:48;7.80;99.90
12708;DHT22;6418;50.824;4.718;2023-04-16T08:18:15;7.80;99.90
12708;DHT22;6418;50.824;4.718;2023-04-16T08:20:42;7.80;99.90
12708;DHT22;6418;50.824;4.718;2023-04-16T08:23:09;7.80;99.90
12708;DHT22;6418;50.824;4.718;2023-04-16T08:25:36;7.90;99.90
12708;DHT22;6418;50.824;4.718;2023-04-16T08:28:03;8.00;99.90
12708;DHT22;6418;50.824;4.718;2023-04-16T08:30:31;7.90;99.90
12708;DHT22;6418;50.824;4.718;2023-04-16T08:32:58;7.90;99.90
12708;DHT22;6418;50.824;4.718;2023-04-16T08:35:25;7.90;99.90
12708;DHT22;6418;50.824;4.718;2023-04-16T08:37:52;7.90;99.90
12708;DHT22;6418;50.824;4.718;2023-04-16T08:40:19;7.90;99.90
12708;DHT22;6418;50.824;4.718;2023-04-16T08:42:50;7.80;99.90
12708;DHT22;6418;50.824;4.718;2023-04-16T08:45:18;7.90;99.90
12708;DHT22;6418;50.824;4.718;2023-04-16T08:47:48;7.80;99.90
12708;DHT22;6418;50.824;4.718;2023-04-16T08:50:16;7.90;99.90
12708;DHT22;6418;50.824;4.718;2023-04-16T08:52:48;7.90;99.90
12708;DHT22;6418;50.824;4.718;2023-04-16T08:55:18;7.80;99.90
12708;DHT22;6418;50.824;4.718;2023-04-16T08:57:47;7.90;99.90
12708;DHT22;6418;50.824;4.718;2023-04-16T09:00:15;7.90;99.90
12708;DHT22;6418;50.824;4.718;2023-04-16T09:02:42;7.90;99.90
12708;DHT22;6418;50.824;4.718;2023-04-16T09:05:14;7.90;99.90
12708;DHT22;6418;50.824;4.718;2023-04-16T09:07:43;7.90;99.90
12708;DHT22;6418;50.824;4.718;2023-04-16T09:10:11;7.80;99.90
12708;DHT22;6418;50.824;4.718;2023-04-16T09:12:40;7.90;99.90
12708;DHT22;6418;50.824;4.718;2023-04-16T09:15:09;7.90;99.90
12708;DHT22;6418;50.824;4.718;2023-04-16T09:17:36;7.90;99.90
12708;DHT22;6418;50.824;4.718;2023-04-16T09:20:04;7.90;99.90
12708;DHT22;6418;50.824;4.718;2023-04-16T09:22:34;7.90;99.90
12708;DHT22;6418;50.824;4.718;2023-04-16T09:25:01;8.00;99.90
12708;DHT22;6418;50.824;4.718;2023-04-16T09:27:29;7.90;99.90
12708;DHT22;6418;50.824;4.718;2023-04-16T09:29:56;7.90;99.90
12708;DHT22;6418;50.824;4.718;2023-04-16T09:32:24;7.90;99.90
12708;DHT22;6418;50.824;4.718;2023-04-16T09:34:56;7.90;99.90
12708;DHT22;6418;50.824;4.718;2023-04-16T09:37:24;7.90;99.90
12708;DHT22;6418;50.824;4.718;2023-04-16T09:39:57;8.00;99.90
12708;DHT22;6418;50.824;4.718;2023-04-16T09:42:31;7.90;99.90
12708;DHT22;6418;50.824;4.718;2023-04-16T09:44:59;7.90;99.90
12708;DHT22;6418;50.824;4.718;2023-04-16T09:47:44;8.00;99.90
12708;DHT22;6418;50.824;4.718;2023-04-16T09:50:15;8.00;99.90
12708;DHT22;6418;50.824;4.718;2023-04-16T09:52:43;8.00;99.90
12708;DHT22;6418;50.824;4.718;2023-04-16T09:55:12;8.10;99.90
12708;DHT22;6418;50.824;4.718;2023-04-16T09:57:38;8.10;99.90
12708;DHT22;6418;50.824;4.718;2023-04-16T10:00:07;8.10;99.90
12708;DHT22;6418;50.824;4.718;2023-04-16T10:02:35;8.10;99.90
12708;DHT22;6418;50.824;4.718;2023-04-16T10:05:03;8.00;99.90
12708;DHT22;6418;50.824;4.718;2023-04-16T10:07:33;8.10;99.90
12708;DHT22;6418;50.824;4.718;2023-04-16T10:10:01;8.20;99.90
12708;DHT22;6418;50.824;4.718;2023-04-16T10:12:30;8.10;99.90
12708;DHT22;6418;50.824;4.718;2023-04-16T10:15:00;8.20;99.90
12708;DHT22;6418;50.824;4.718;2023-04-16T10:17:27;8.20;99.90
12708;DHT22;6418;50.824;4.718;2023-04-16T10:19:57;8.20;99.90
12708;DHT22;6418;50.824;4.718;2023-04-16T10:22:24;8.30;99.90
12708;DHT22;6418;50.824;4.718;2023-04-16T10:24:52;8.20;99.90
12708;DHT22;6418;50.824;4.718;2023-04-16T10:27:20;8.30;99.90
12708;DHT22;6418;50.824;4.718;2023-04-16T10:29:50;8.30;99.90
12708;DHT22;6418;50.824;4.718;2023-04-16T10:32:17;8.30;99.90
12708;DHT22;6418;50.824;4.718;2023-04-16T10:34:46;8.30;99.90
12708;DHT22;6418;50.824;4.718;2023-04-16T10:37:14;8.30;99.90
12708;DHT22;6418;50.824;4.718;2023-04-16T10:39:42;8.20;99.90
12708;DHT22;6418;50.824;4.718;2023-04-16T10:42:10;8.20;99.90
12708;DHT22;6418;50.824;4.718;2023-04-16T10:44:39;8.30;99.90
12708;DHT22;6418;50.824;4.718;2023-04-16T10:47:11;8.20;99.90
12708;DHT22;6418;50.824;4.718;2023-04-16T10:49:38;8.30;99.90
12708;DHT22;6418;50.824;4.718;2023-04-16T10:52:10;8.40;99.90
12708;DHT22;6418;50.824;4.718;2023-04-16T10:54:38;8.40;99.90
12708;DHT22;6418;50.824;4.718;2023-04-16T10:57:06;8.40;99.90
12708;DHT22;6418;50.824;4.718;2023-04-16T10:59:35;8.40;99.90
12708;DHT22;6418;50.824;4.718;2023-04-16T11:02:06;8.40;99.90
12708;DHT22;6418;50.824;4.718;2023-04-16T11:04:36;8.40;99.90
12708;DHT22;6418;50.824;4.718;2023-04-16T11:07:14;8.40;99.90
12708;DHT22;6418;50.824;4.718;2023-04-16T11:09:51;8.50;99.90
12708;DHT22;6418;50.824;4.718;2023-04-16T11:12:20;8.50;99.90
12708;DHT22;6418;50.824;4.718;2023-04-16T11:14:49;8.50;99.90
12708;DHT22;6418;50.824;4.718;2023-04-16T11:17:17;8.60;99.90
12708;DHT22;6418;50.824;4.718;2023-04-16T11:19:45;8.60;99.90
12708;DHT22;6418;50.824;4.718;2023-04-16T11:22:13;8.60;99.90
12708;DHT22;6418;50.824;4.718;2023-04-16T11:24:42;8.70;99.90
12708;DHT22;6418;50.824;4.718;2023-04-16T11:27:11;8.70;99.90
12708;DHT22;6418;50.824;4.718;2023-04-16T11:29:38;8.70;99.90
12708;DHT22;6418;50.824;4.718;2023-04-16T11:32:06;8.70;99.90
12708;DHT22;6418;50.824;4.718;2023-04-16T11:34:33;8.70;99.90
12708;DHT22;6418;50.824;4.718;2023-04-16T11:37:01;8.80;99.90
12708;DHT22;6418;50.824;4.718;2023-04-16T11:39:28;8.80;99.90
12708;DHT22;6418;50.824;4.718;2023-04-16T11:41:55;8.80;99.90
12708;DHT22;6418;50.824;4.718;2023-04-16T11:44:24;8.80;99.90
12708;DHT22;6418;50.824;4.718;2023-04-16T11:46:52;8.90;99.90
12708;DHT22;6418;50.824;4.718;2023-04-16T11:49:26;8.80;99.90
12708;DHT22;6418;50.824;4.718;2023-04-16T11:51:53;8.80;99.90
12708;DHT22;6418;50.824;4.718;2023-04-16T11:54:23;8.80;99.90
12708;DHT22;6418;50.824;4.718;2023-04-16T11:56:51;8.90;99.90
12708;DHT22;6418;50.824;4.718;2023-04-16T11:59:20;8.80;99.90
12708;DHT22;6418;50.824;4.718;2023-04-16T12:01:49;8.90;99.90
12708;DHT22;6418;50.824;4.718;2023-04-16T12:04:18;8.80;99.90
12708;DHT22;6418;50.824;4.718;2023-04-16T12:07:08;8.80;99.90
12708;DHT22;6418;50.824;4.718;2023-04-16T12:09:38;8.80;99.90
12708;DHT22;6418;50.824;4.718;2023-04-16T12:12:12;8.90;99.90
12708;DHT22;6418;50.824;4.718;2023-04-16T12:14:50;8.90;99.90
12708;DHT22;6418;50.824;4.718;2023-04-16T12:17:18;9.00;99.90
12708;DHT22;6418;50.824;4.718;2023-04-16T12:19:49;9.00;99.90
12708;DHT22;6418;50.824;4.718;2023-04-16T12:22:16;9.00;99.90
12708;DHT22;6418;50.824;4.718;2023-04-16T12:24:44;9.00;99.90
12708;DHT22;6418;50.824;4.718;2023-04-16T12:27:11;9.00;99.90
12708;DHT22;6418;50.824;4.718;2023-04-16T12:29:40;8.90;99.90
12708;DHT22;6418;50.824;4.718;2023-04-16T12:32:20;9.00;99.90
12708;DHT22;6418;50.824;4.718;2023-04-16T12:34:50;9.00;99.90
12708;DHT22;6418;50.824;4.718;2023-04-16T12:37:17;9.20;99.90
12708;DHT22;6418;50.824;4.718;2023-04-16T12:39:45;9.20;99.90
12708;DHT22;6418;50.824;4.718;2023-04-16T12:42:12;9.00;99.90
12708;DHT22;6418;50.824;4.718;2023-04-16T12:44:39;9.10;99.90
12708;DHT22;6418;50.824;4.718;2023-04-16T12:47:06;9.20;99.90
12708;DHT22;6418;50.824;4.718;2023-04-16T12:49:33;9.10;99.90
12708;DHT22;6418;50.824;4.718;2023-04-16T12:52:01;9.20;99.90
12708;DHT22;6418;50.824;4.718;2023-04-16T12:54:28;9.20;99.90
12708;DHT22;6418;50.824;4.718;2023-04-16T12:56:57;9.20;99.90
12708;DHT22;6418;50.824;4.718;2023-04-16T12:59:24;9.20;99.90
12708;DHT22;6418;50.824;4.718;2023-04-16T13:01:52;9.30;99.90
12708;DHT22;6418;50.824;4.718;2023-04-16T13:04:19;9.30;99.90
12708;DHT22;6418;50.824;4.718;2023-04-16T13:06:46;9.30;99.90
12708;DHT22;6418;50.824;4.718;2023-04-16T13:09:13;9.30;99.90
12708;DHT22;6418;50.824;4.718;2023-04-16T13:11:40;9.20;99.90
12708;DHT22;6418;50.824;4.718;2023-04-16T13:14:08;9.10;99.90
12708;DHT22;6418;50.824;4.718;2023-04-16T13:16:35;9.30;99.90
12708;DHT22;6418;50.824;4.718;2023-04-16T13:19:03;9.20;99.90
12708;DHT22;6418;50.824;4.718;2023-04-16T13:21:30;9.30;99.90
12708;DHT22;6418;50.824;4.718;2023-04-16T13:23:57;9.20;99.90
12708;DHT22;6418;50.824;4.718;2023-04-16T13:26:24;9.30;99.90
12708;DHT22;6418;50.824;4.718;2023-04-16T13:28:51;9.40;99.90
12708;DHT22;6418;50.824;4.718;2023-04-16T13:31:20;9.40;99.90
12708;DHT22;6418;50.824;4.718;2023-04-16T13:33:48;9.50;99.90
12708;DHT22;6418;50.824;4.718;2023-04-16T13:36:16;9.60;99.90
12708;DHT22;6418;50.824;4.718;2023-04-16T13:38:43;9.60;99.90
12708;DHT22;6418;50.824;4.718;2023-04-16T13:41:10;9.70;99.90
12708;DHT22;6418;50.824;4.718;2023-04-16T13:43:37;9.70;99.90
12708;DHT22;6418;50.824;4.718;2023-04-16T13:46:04;9.60;99.90
12708;DHT22;6418;50.824;4.718;2023-04-16T13:48:32;9.60;99.90
12708;DHT22;6418;50.824;4.718;2023-04-16T13:50:59;9.50;99.90
12708;DHT22;6418;50.824;4.718;2023-04-16T13:53:26;9.60;99.90
12708;DHT22;6418;50.824;4.718;2023-04-16T13:55:53;9.50;99.90
12708;DHT22;6418;50.824;4.718;2023-04-16T13:58:19;9.60;99.90
12708;DHT22;6418;50.824;4.718;2023-04-16T14:00:46;9.50;99.90
12708;DHT22;6418;50.824;4.718;2023-04-16T14:03:13;9.50;99.90
12708;DHT22;6418;50.824;4.718;2023-04-16T14:05:41;9.60;99.90
12708;DHT22;6418;50.824;4.718;2023-04-16T14:08:08;9.60;99.90
12708;DHT22;6418;50.824;4.718;2023-04-16T14:10:35;9.60;99.90
12708;DHT22;6418;50.824;4.718;2023-04-16T14:13:02;9.60;99.90
12708;DHT22;6418;50.824;4.718;2023-04-16T14:15:29;9.50;99.90
12708;DHT22;6418;50.824;4.718;2023-04-16T14:17:56;9.60;99.90
12708;DHT22;6418;50.824;4.718;2023-04-16T14:20:23;9.70;99.90
12708;DHT22;6418;50.824;4.718;2023-04-16T14:22:51;9.70;99.90
12708;DHT22;6418;50.824;4.718;2023-04-16T14:25:18;9.70;99.90
12708;DHT22;6418;50.824;4.718;2023-04-16T14:27:45;9.70;99.90
12708;DHT22;6418;50.824;4.718;2023-04-16T14:30:12;9.60;99.90
12708;DHT22;6418;50.824;4.718;2023-04-16T14:32:40;9.60;99.90
12708;DHT22;6418;50.824;4.718;2023-04-16T14:35:07;9.60;99.90
12708;DHT22;6418;50.824;4.718;2023-04-16T14:37:35;9.60;99.90
12708;DHT22;6418;50.824;4.718;2023-04-16T14:40:05;9.60;99.90
12708;DHT22;6418;50.824;4.718;2023-04-16T14:42:33;9.60;99.90
12708;DHT22;6418;50.824;4.718;2023-04-16T14:45:01;9.60;99.90
12708;DHT22;6418;50.824;4.718;2023-04-16T14:47:27;9.60;99.90
12708;DHT22;6418;50.824;4.718;2023-04-16T14:49:55;9.60;99.90
12708;DHT22;6418;50.824;4.718;2023-04-16T14:52:21;9.60;99.90
12708;DHT22;6418;50.824;4.718;2023-04-16T14:54:48;9.70;99.90
12708;DHT22;6418;50.824;4.718;2023-04-16T14:57:18;9.60;99.90
12708;DHT22;6418;50.824;4.718;2023-04-16T14:59:45;9.70;99.90
12708;DHT22;6418;50.824;4.718;2023-04-16T15:02:12;9.70;99.90
12708;DHT22;6418;50.824;4.718;2023-04-16T15:04:40;9.70;99.90
12708;DHT22;6418;50.824;4.718;2023-04-16T15:07:06;9.80;99.90
12708;DHT22;6418;50.824;4.718;2023-04-16T15:09:33;9.90;99.90
12708;DHT22;6418;50.824;4.718;2023-04-16T15:12:00;9.90;99.90
12708;DHT22;6418;50.824;4.718;2023-04-16T15:14:29;9.80;99.90
12708;DHT22;6418;50.824;4.718;2023-04-16T15:16:56;9.80;99.90
12708;DHT22;6418;50.824;4.718;2023-04-16T15:19:23;9.80;99.90
12708;DHT22;6418;50.824;4.718;2023-04-16T15:21:50;9.90;99.90
12708;DHT22;6418;50.824;4.718;2023-04-16T15:24:17;9.80;99.90
12708;DHT22;6418;50.824;4.718;2023-04-16T15:26:44;9.80;99.90
12708;DHT22;6418;50.824;4.718;2023-04-16T15:29:11;9.60;99.90
12708;DHT22;6418;50.824;4.718;2023-04-16T15:31:40;9.80;99.90
12708;DHT22;6418;50.824;4.718;2023-04-16T15:34:06;9.70;99.90
12708;DHT22;6418;50.824;4.718;2023-04-16T15:36:33;9.80;99.90
12708;DHT22;6418;50.824;4.718;2023-04-16T15:39:01;9.70;99.90
12708;DHT22;6418;50.824;4.718;2023-04-16T15:41:28;9.80;99.90
12708;DHT22;6418;50.824;4.718;2023-04-16T15:43:56;9.80;99.90
12708;DHT22;6418;50.824;4.718;2023-04-16T15:46:23;9.80;99.90
12708;DHT22;6418;50.824;4.718;2023-04-16T15:48:51;9.80;99.90
12708;DHT22;6418;50.824;4.718;2023-04-16T15:51:18;9.70;99.90
12708;DHT22;6418;50.824;4.718;2023-04-16T15:53:45;9.70;99.90
12708;DHT22;6418;50.824;4.718;2023-04-16T15:56:14;9.70;99.90
12708;DHT22;6418;50.824;4.718;2023-04-16T15:58:41;9.70;99.90
12708;DHT22;6418;50.824;4.718;2023-04-16T16:01:08;9.60;99.90
12708;DHT22;6418;50.824;4.718;2023-04-16T16:03:35;9.70;99.90
12708;DHT22;6418;50.824;4.718;2023-04-16T16:06:03;9.70;99.90